sensor_id;sensor_type;location;lat;lon;timestamp;pressure;altitude;pressure_sealevel;temperature;humidity
74973;BME280;63529;56.320;43.990;2022-09-27T00:00:31;99323.44;;;10.12;78.36
74973;BME280;63529;56.320;43.990;2022-09-27T00:02:57;99321.84;;;10.11;78.65
74973;BME280;63529;56.320;43.990;2022-09-27T00:05:24;99310.34;;;10.10;78.67
74973;BME280;63529;56.320;43.990;2022-09-27T00:07:50;99320.75;;;10.12;78.62
74973;BME280;63529;56.320;43.990;2022-09-27T00:10:16;99322.88;;;10.10;78.71
74973;BME280;63529;56.320;43.990;2022-09-27T00:12:42;99320.50;;;10.08;78.61
74973;BME280;63529;56.320;43.990;2022-09-27T00:15:09;99318.34;;;10.10;78.54
74973;BME280;63529;56.320;43.990;2022-09-27T00:17:36;99317.03;;;10.07;78.61
74973;BME280;63529;56.320;43.990;2022-09-27T00:20:03;99326.09;;;10.06;78.50
74973;BME280;63529;56.320;43.990;2022-09-27T00:22:30;99324.75;;;10.09;78.68
74973;BME280;63529;56.320;43.990;2022-09-27T00:24:57;99326.09;;;10.06;78.44
74973;BME280;63529;56.320;43.990;2022-09-27T00:27:24;99320.78;;;10.06;78.50
74973;BME280;63529;56.320;43.990;2022-09-27T00:29:51;99322.66;;;10.06;78.23
74973;BME280;63529;56.320;43.990;2022-09-27T00:32:17;99321.84;;;10.05;78.31
74973;BME280;63529;56.320;43.990;2022-09-27T00:34:43;99328.78;;;10.01;78.28
74973;BME280;63529;56.320;43.990;2022-09-27T00:37:09;99330.94;;;9.99;78.32
74973;BME280;63529;56.320;43.990;2022-09-27T00:39:36;99338.38;;;9.97;78.42
74973;BME280;63529;56.320;43.990;2022-09-27T00:42:04;99340.53;;;9.95;78.50
74973;BME280;63529;56.320;43.990;2022-09-27T00:47:13;99343.19;;;9.90;78.55
74973;BME280;63529;56.320;43.990;2022-09-27T00:49:52;99349.31;;;9.91;78.51
74973;BME280;63529;56.320;43.990;2022-09-27T00:52:30;99353.31;;;9.88;78.47
74973;BME280;63529;56.320;43.990;2022-09-27T00:55:04;99354.94;;;9.84;78.50
74973;BME280;63529;56.320;43.990;2022-09-27T00:57:31;99352.53;;;9.83;78.45
74973;BME280;63529;56.320;43.990;2022-09-27T01:00:06;99358.13;;;9.81;78.74
74973;BME280;63529;56.320;43.990;2022-09-27T01:02:36;99356.81;;;9.78;78.64
74973;BME280;63529;56.320;43.990;2022-09-27T01:05:05;99361.34;;;9.78;78.76
74973;BME280;63529;56.320;43.990;2022-09-27T01:07:32;99369.88;;;9.80;78.78
74973;BME280;63529;56.320;43.990;2022-09-27T01:09:58;99364.53;;;9.80;78.81
74973;BME280;63529;56.320;43.990;2022-09-27T01:26:51;99376.25;;;9.89;78.76
74973;BME280;63529;56.320;43.990;2022-09-27T01:37:45;99390.66;;;9.93;78.47
74973;BME280;63529;56.320;43.990;2022-09-27T01:40:23;99394.38;;;9.92;78.45
74973;BME280;63529;56.320;43.990;2022-09-27T01:43:23;99392.78;;;9.91;78.24
74973;BME280;63529;56.320;43.990;2022-09-27T01:45:58;99400.25;;;9.89;78.29
74973;BME280;63529;56.320;43.990;2022-09-27T01:48:47;99405.84;;;9.88;78.26
74973;BME280;63529;56.320;43.990;2022-09-27T01:51:22;99408.50;;;9.88;78.62
74973;BME280;63529;56.320;43.990;2022-09-27T01:53:52;99405.31;;;9.86;78.47
74973;BME280;63529;56.320;43.990;2022-09-27T01:56:41;99413.03;;;9.87;78.37
74973;BME280;63529;56.320;43.990;2022-09-27T01:59:19;99411.97;;;9.88;78.63
74973;BME280;63529;56.320;43.990;2022-09-27T02:02:00;99413.03;;;9.87;78.37
74973;BME280;63529;56.320;43.990;2022-09-27T02:04:39;99423.97;;;9.86;78.47
74973;BME280;63529;56.320;43.990;2022-09-27T02:07:17;99427.44;;;9.86;78.52
74973;BME280;63529;56.320;43.990;2022-09-27T02:09:52;99439.19;;;9.85;78.49
74973;BME280;63529;56.320;43.990;2022-09-27T02:12:27;99438.09;;;9.86;78.43
74973;BME280;63529;56.320;43.990;2022-09-27T02:15:00;99439.19;;;9.85;78.45
74973;BME280;63529;56.320;43.990;2022-09-27T02:20:39;99443.44;;;9.86;78.43
74973;BME280;63529;56.320;43.990;2022-09-27T02:25:56;99444.22;;;9.82;78.38
74973;BME280;63529;56.320;43.990;2022-09-27T02:31:01;99442.63;;;9.75;78.48
74973;BME280;63529;56.320;43.990;2022-09-27T02:33:38;99445.56;;;9.74;78.40
74973;BME280;63529;56.320;43.990;2022-09-27T02:36:05;99451.16;;;9.72;78.37
74973;BME280;63529;56.320;43.990;2022-09-27T02:38:32;99451.94;;;9.68;78.52
74973;BME280;63529;56.320;43.990;2022-09-27T02:40:59;99453.53;;;9.69;78.70
74973;BME280;63529;56.320;43.990;2022-09-27T02:43:28;99451.94;;;9.68;78.51
74973;BME280;63529;56.320;43.990;2022-09-27T02:46:14;99449.28;;;9.68;78.71
74973;BME280;63529;56.320;43.990;2022-09-27T02:54:15;99457.78;;;9.65;78.47
74973;BME280;63529;56.320;43.990;2022-09-27T03:00:16;99463.69;;;9.67;78.56
74973;BME280;63529;56.320;43.990;2022-09-27T03:03:48;99463.41;;;9.68;78.51
74973;BME280;63529;56.320;43.990;2022-09-27T03:06:09;99465.81;;;9.70;78.52
74973;BME280;63529;56.320;43.990;2022-09-27T03:08:37;99472.72;;;9.71;78.50
74973;BME280;63529;56.320;43.990;2022-09-27T03:11:04;99469.03;;;9.72;78.49
74973;BME280;63529;56.320;43.990;2022-09-27T03:13:30;99476.75;;;9.73;78.46
74973;BME280;63529;56.320;43.990;2022-09-27T03:15:57;99482.06;;;9.73;78.41
74973;BME280;63529;56.320;43.990;2022-09-27T03:18:46;99493.25;;;9.75;78.39
74973;BME280;63529;56.320;43.990;2022-09-27T03:21:41;99491.41;;;9.76;78.17
74973;BME280;63529;56.320;43.990;2022-09-27T03:24:08;99497.53;;;9.76;78.38
74973;BME280;63529;56.320;43.990;2022-09-27T03:26:34;99501.78;;;9.77;78.21
74973;BME280;63529;56.320;43.990;2022-09-27T03:28:59;99498.31;;;9.77;78.15
74973;BME280;63529;56.320;43.990;2022-09-27T03:31:26;99489.00;;;9.79;78.29
74973;BME280;63529;56.320;43.990;2022-09-27T03:34:18;99495.66;;;9.82;78.23
74973;BME280;63529;56.320;43.990;2022-09-27T03:36:44;99505.25;;;9.83;78.09
74973;BME280;63529;56.320;43.990;2022-09-27T03:39:10;99499.94;;;9.83;78.09
74973;BME280;63529;56.320;43.990;2022-09-27T03:41:36;99500.47;;;9.80;77.80
74973;BME280;63529;56.320;43.990;2022-09-27T03:44:03;99499.94;;;9.78;78.08
74973;BME280;63529;56.320;43.990;2022-09-27T03:46:29;99501.00;;;9.77;78.01
74973;BME280;63529;56.320;43.990;2022-09-27T03:48:55;99494.06;;;9.76;77.86
74973;BME280;63529;56.320;43.990;2022-09-27T03:51:21;99498.31;;;9.77;77.86
74973;BME280;63529;56.320;43.990;2022-09-27T03:53:47;99499.69;;;9.79;77.94
74973;BME280;63529;56.320;43.990;2022-09-27T03:56:14;99501.81;;;9.83;77.86
74973;BME280;63529;56.320;43.990;2022-09-27T03:58:40;99501.53;;;9.84;77.77
74973;BME280;63529;56.320;43.990;2022-09-27T04:01:06;99497.28;;;9.88;77.59
74973;BME280;63529;56.320;43.990;2022-09-27T04:03:33;99503.94;;;9.91;77.59
74973;BME280;63529;56.320;43.990;2022-09-27T04:06:04;99503.41;;;9.94;77.21
74973;BME280;63529;56.320;43.990;2022-09-27T04:08:36;99507.41;;;9.96;77.15
74973;BME280;63529;56.320;43.990;2022-09-27T04:11:04;99505.03;;;10.00;77.18
74973;BME280;63529;56.320;43.990;2022-09-27T04:13:30;99505.28;;;10.03;77.13
74973;BME280;63529;56.320;43.990;2022-09-27T04:15:56;99514.88;;;10.10;77.18
74973;BME280;63529;56.320;43.990;2022-09-27T04:18:40;99519.44;;;10.14;76.92
74973;BME280;63529;56.320;43.990;2022-09-27T04:21:29;99518.09;;;10.17;76.74
74973;BME280;63529;56.320;43.990;2022-09-27T04:23:55;99525.06;;;10.23;76.68
74973;BME280;63529;56.320;43.990;2022-09-27T04:26:22;99518.41;;;10.25;76.29
74973;BME280;63529;56.320;43.990;2022-09-27T04:29:00;99528.28;;;10.25;76.01
74973;BME280;63529;56.320;43.990;2022-09-27T04:31:26;99531.19;;;10.28;76.07
74973;BME280;63529;56.320;43.990;2022-09-27T04:34:10;99526.41;;;10.30;76.14
74973;BME280;63529;56.320;43.990;2022-09-27T04:36:36;99535.19;;;10.36;75.80
74973;BME280;63529;56.320;43.990;2022-09-27T04:39:08;99541.59;;;10.40;75.92
74973;BME280;63529;56.320;43.990;2022-09-27T04:41:37;99540.25;;;10.43;75.93
74973;BME280;63529;56.320;43.990;2022-09-27T04:44:04;99533.06;;;10.43;75.48
74973;BME280;63529;56.320;43.990;2022-09-27T04:46:31;99542.13;;;10.42;75.47
74973;BME280;63529;56.320;43.990;2022-09-27T04:48:58;99539.72;;;10.41;75.68
74973;BME280;63529;56.320;43.990;2022-09-27T04:51:25;99537.84;;;10.41;75.52
74973;BME280;63529;56.320;43.990;2022-09-27T04:53:52;99541.06;;;10.43;75.64
74973;BME280;63529;56.320;43.990;2022-09-27T04:56:20;99541.06;;;10.48;75.55
74973;BME280;63529;56.320;43.990;2022-09-27T04:58:46;99540.81;;;10.50;75.15
74973;BME280;63529;56.320;43.990;2022-09-27T05:01:13;99545.06;;;10.51;75.15
74973;BME280;63529;56.320;43.990;2022-09-27T05:04:07;99544.78;;;10.57;75.16
74973;BME280;63529;56.320;43.990;2022-09-27T05:06:37;99553.03;;;10.61;75.01
74973;BME280;63529;56.320;43.990;2022-09-27T05:09:16;99551.72;;;10.64;74.93
74973;BME280;63529;56.320;43.990;2022-09-27T05:11:49;99550.91;;;10.68;74.71
74973;BME280;63529;56.320;43.990;2022-09-27T05:14:15;99549.31;;;10.77;74.96
74973;BME280;63529;56.320;43.990;2022-09-27T05:17:04;99553.28;;;10.85;74.47
74973;BME280;63529;56.320;43.990;2022-09-27T05:19:42;99559.41;;;10.96;74.16
74973;BME280;63529;56.320;43.990;2022-09-27T05:22:31;99550.56;;;11.05;73.67
74973;BME280;63529;56.320;43.990;2022-09-27T05:24:56;99561.75;;;11.12;73.46
74973;BME280;63529;56.320;43.990;2022-09-27T05:27:23;99553.22;;;11.16;73.11
74973;BME280;63529;56.320;43.990;2022-09-27T05:29:50;99560.16;;;11.17;73.05
74973;BME280;63529;56.320;43.990;2022-09-27T05:32:29;99562.28;;;11.20;73.14
74973;BME280;63529;56.320;43.990;2022-09-27T05:35:21;99559.03;;;11.28;73.03
74973;BME280;63529;56.320;43.990;2022-09-27T05:37:55;99566.50;;;11.36;73.01
74973;BME280;63529;56.320;43.990;2022-09-27T05:40:22;99567.00;;;11.43;72.73
74973;BME280;63529;56.320;43.990;2022-09-27T05:42:51;99565.38;;;11.47;72.50
74973;BME280;63529;56.320;43.990;2022-09-27T05:45:18;99576.59;;;11.49;72.28
74973;BME280;63529;56.320;43.990;2022-09-27T05:48:05;99572.84;;;11.50;72.01
74973;BME280;63529;56.320;43.990;2022-09-27T05:50:35;99581.38;;;11.52;72.02
74973;BME280;63529;56.320;43.990;2022-09-27T05:53:01;99580.84;;;11.55;71.97
74973;BME280;63529;56.320;43.990;2022-09-27T05:55:28;99581.09;;;11.54;71.62
74973;BME280;63529;56.320;43.990;2022-09-27T05:57:59;99590.19;;;11.58;71.79
74973;BME280;63529;56.320;43.990;2022-09-27T06:00:40;99582.94;;;11.63;71.73
74973;BME280;63529;56.320;43.990;2022-09-27T06:03:25;99581.84;;;11.69;71.60
74973;BME280;63529;56.320;43.990;2022-09-27T06:06:10;99581.25;;;11.78;71.38
74973;BME280;63529;56.320;43.990;2022-09-27T06:08:43;99581.28;;;11.83;70.97
74973;BME280;63529;56.320;43.990;2022-09-27T06:11:13;99583.38;;;11.86;70.78
74973;BME280;63529;56.320;43.990;2022-09-27T06:13:40;99587.91;;;11.90;70.73
74973;BME280;63529;56.320;43.990;2022-09-27T06:16:09;99591.09;;;11.92;70.69
74973;BME280;63529;56.320;43.990;2022-09-27T06:18:37;99588.72;;;11.91;70.92
74973;BME280;63529;56.320;43.990;2022-09-27T06:21:04;99594.56;;;11.93;70.78
74973;BME280;63529;56.320;43.990;2022-09-27T06:23:32;99592.97;;;11.92;70.73
74973;BME280;63529;56.320;43.990;2022-09-27T06:26:04;99593.78;;;11.92;70.74
74973;BME280;63529;56.320;43.990;2022-09-27T06:28:46;99602.34;;;11.94;70.85
74973;BME280;63529;56.320;43.990;2022-09-27T06:31:13;99611.41;;;11.99;70.96
74973;BME280;63529;56.320;43.990;2022-09-27T06:33:48;99610.56;;;12.03;70.59
74973;BME280;63529;56.320;43.990;2022-09-27T06:36:15;99607.09;;;12.03;70.54
74973;BME280;63529;56.320;43.990;2022-09-27T06:38:41;99615.66;;;12.05;70.53
74973;BME280;63529;56.320;43.990;2022-09-27T06:41:11;99615.09;;;12.13;70.81
74973;BME280;63529;56.320;43.990;2022-09-27T06:43:56;99610.69;;;12.27;70.40
74973;BME280;63529;56.320;43.990;2022-09-27T06:46:40;99618.91;;;12.41;70.00
74973;BME280;63529;56.320;43.990;2022-09-27T06:49:10;99616.97;;;12.46;69.69
74973;BME280;63529;56.320;43.990;2022-09-27T06:51:38;99623.09;;;12.52;69.47
74973;BME280;63529;56.320;43.990;2022-09-27T06:54:04;99623.84;;;12.58;69.39
74973;BME280;63529;56.320;43.990;2022-09-27T06:56:30;99627.81;;;12.65;69.37
74973;BME280;63529;56.320;43.990;2022-09-27T06:58:56;99614.44;;;12.65;68.92
74973;BME280;63529;56.320;43.990;2022-09-27T07:01:41;99619.53;;;12.62;68.88
74973;BME280;63529;56.320;43.990;2022-09-27T07:04:26;99627.56;;;12.62;68.90
74973;BME280;63529;56.320;43.990;2022-09-27T07:07:05;99621.63;;;12.65;69.09
74973;BME280;63529;56.320;43.990;2022-09-27T07:09:37;99622.19;;;12.67;68.67
74973;BME280;63529;56.320;43.990;2022-09-27T07:12:05;99624.06;;;12.66;68.56
74973;BME280;63529;56.320;43.990;2022-09-27T07:14:31;99628.31;;;12.67;68.26
74973;BME280;63529;56.320;43.990;2022-09-27T07:17:00;99631.56;;;12.64;67.82
74973;BME280;63529;56.320;43.990;2022-09-27T07:19:31;99631.28;;;12.66;67.99
74973;BME280;63529;56.320;43.990;2022-09-27T07:21:57;99631.50;;;12.69;67.85
74973;BME280;63529;56.320;43.990;2022-09-27T07:24:23;99633.38;;;12.74;67.85
74973;BME280;63529;56.320;43.990;2022-09-27T07:26:49;99641.28;;;12.84;67.68
74973;BME280;63529;56.320;43.990;2022-09-27T07:29:18;99633.94;;;13.00;67.27
74973;BME280;63529;56.320;43.990;2022-09-27T07:31:45;99633.94;;;13.29;66.26
74973;BME280;63529;56.320;43.990;2022-09-27T07:34:11;99631.03;;;13.49;65.67
74973;BME280;63529;56.320;43.990;2022-09-27T07:36:38;99641.13;;;13.57;65.08
74973;BME280;63529;56.320;43.990;2022-09-27T07:39:05;99637.56;;;13.62;65.14
74973;BME280;63529;56.320;43.990;2022-09-27T07:41:32;99635.94;;;13.66;64.84
74973;BME280;63529;56.320;43.990;2022-09-27T07:43:58;99642.84;;;13.72;64.58
74973;BME280;63529;56.320;43.990;2022-09-27T07:46:24;99652.75;;;13.72;63.99
74973;BME280;63529;56.320;43.990;2022-09-27T07:48:58;99647.50;;;13.62;64.15
74973;BME280;63529;56.320;43.990;2022-09-27T07:51:42;99655.91;;;13.55;64.75
74973;BME280;63529;56.320;43.990;2022-09-27T07:54:25;99651.56;;;13.59;65.10
74973;BME280;63529;56.320;43.990;2022-09-27T07:57:21;99659.38;;;13.79;64.84
74973;BME280;63529;56.320;43.990;2022-09-27T07:59:49;99657.72;;;13.83;64.19
74973;BME280;63529;56.320;43.990;2022-09-27T08:02:18;99664.44;;;13.81;64.24
74973;BME280;63529;56.320;43.990;2022-09-27T08:04:46;99663.16;;;13.78;64.50
74973;BME280;63529;56.320;43.990;2022-09-27T08:07:13;99668.84;;;13.72;64.19
74973;BME280;63529;56.320;43.990;2022-09-27T08:09:40;99662.69;;;13.71;64.03
74973;BME280;63529;56.320;43.990;2022-09-27T08:12:06;99665.88;;;13.73;63.78
74973;BME280;63529;56.320;43.990;2022-09-27T08:14:32;99662.47;;;13.68;64.10
74973;BME280;63529;56.320;43.990;2022-09-27T08:17:00;99660.13;;;13.61;64.15
74973;BME280;63529;56.320;43.990;2022-09-27T08:19:25;99669.31;;;13.55;64.70
74973;BME280;63529;56.320;43.990;2022-09-27T08:22:03;99676.38;;;13.46;64.59
74973;BME280;63529;56.320;43.990;2022-09-27T08:24:41;99673.59;;;13.32;64.70
74973;BME280;63529;56.320;43.990;2022-09-27T08:27:26;99673.44;;;13.18;65.21
74973;BME280;63529;56.320;43.990;2022-09-27T08:29:55;99679.16;;;13.07;65.25
74973;BME280;63529;56.320;43.990;2022-09-27T08:32:21;99675.75;;;12.96;65.59
74973;BME280;63529;56.320;43.990;2022-09-27T08:34:47;99673.94;;;12.91;65.69
74973;BME280;63529;56.320;43.990;2022-09-27T08:37:13;99687.59;;;12.90;65.64
74973;BME280;63529;56.320;43.990;2022-09-27T08:39:39;99677.41;;;12.92;65.81
74973;BME280;63529;56.320;43.990;2022-09-27T08:42:22;99672.00;;;12.97;65.71
74973;BME280;63529;56.320;43.990;2022-09-27T08:45:30;99679.16;;;13.07;65.35
74973;BME280;63529;56.320;43.990;2022-09-27T08:48:00;99676.09;;;13.18;65.11
74973;BME280;63529;56.320;43.990;2022-09-27T08:50:37;99681.59;;;13.37;64.84
74973;BME280;63529;56.320;43.990;2022-09-27T08:55:40;99682.44;;;13.56;63.73
74973;BME280;63529;56.320;43.990;2022-09-27T08:58:39;99683.69;;;13.64;63.85
74973;BME280;63529;56.320;43.990;2022-09-27T09:01:17;99682.31;;;13.91;63.46
74973;BME280;63529;56.320;43.990;2022-09-27T09:04:15;99676.69;;;14.11;62.94
74973;BME280;63529;56.320;43.990;2022-09-27T09:09:30;99680.75;;;14.08;62.61
74973;BME280;63529;56.320;43.990;2022-09-27T09:21:28;99690.09;;;14.11;62.51
74973;BME280;63529;56.320;43.990;2022-09-27T09:26:59;99690.75;;;14.03;62.79
74973;BME280;63529;56.320;43.990;2022-09-27T09:35:05;99695.38;;;14.59;61.65
74973;BME280;63529;56.320;43.990;2022-09-27T09:37:53;99689.63;;;14.98;60.67
74973;BME280;63529;56.320;43.990;2022-09-27T09:40:44;99698.72;;;15.48;59.21
74973;BME280;63529;56.320;43.990;2022-09-27T09:43:17;99697.38;;;15.79;58.13
74973;BME280;63529;56.320;43.990;2022-09-27T09:46:24;99703.94;;;15.86;58.02
74973;BME280;63529;56.320;43.990;2022-09-27T09:48:57;99694.47;;;15.75;57.93
74973;BME280;63529;56.320;43.990;2022-09-27T09:51:39;99700.53;;;15.53;57.97
74973;BME280;63529;56.320;43.990;2022-09-27T09:54:18;99700.09;;;15.32;58.29
74973;BME280;63529;56.320;43.990;2022-09-27T09:56:51;99711.09;;;15.17;58.52
74973;BME280;63529;56.320;43.990;2022-09-27T09:59:48;99706.06;;;14.97;58.77
74973;BME280;63529;56.320;43.990;2022-09-27T10:05:02;99704.81;;;14.75;59.62
74973;BME280;63529;56.320;43.990;2022-09-27T10:07:30;99707.31;;;14.85;59.58
74973;BME280;63529;56.320;43.990;2022-09-27T10:10:00;99699.84;;;15.15;59.09
74973;BME280;63529;56.320;43.990;2022-09-27T10:12:46;99702.03;;;15.59;58.09
74973;BME280;63529;56.320;43.990;2022-09-27T10:15:20;99698.47;;;15.91;57.37
74973;BME280;63529;56.320;43.990;2022-09-27T10:17:48;99698.94;;;16.07;56.40
74973;BME280;63529;56.320;43.990;2022-09-27T10:20:32;99703.69;;;16.10;56.34
74973;BME280;63529;56.320;43.990;2022-09-27T10:23:05;99707.00;;;16.07;56.48
74973;BME280;63529;56.320;43.990;2022-09-27T10:26:03;99705.53;;;16.01;56.56
74973;BME280;63529;56.320;43.990;2022-09-27T10:28:44;99707.13;;;15.88;56.63
74973;BME280;63529;56.320;43.990;2022-09-27T10:31:20;99707.03;;;15.80;56.97
74973;BME280;63529;56.320;43.990;2022-09-27T10:34:04;99705.31;;;15.70;57.46
74973;BME280;63529;56.320;43.990;2022-09-27T10:36:36;99706.63;;;15.72;57.25
74973;BME280;63529;56.320;43.990;2022-09-27T10:39:05;99703.56;;;15.79;57.07
74973;BME280;63529;56.320;43.990;2022-09-27T10:41:41;99702.13;;;15.95;56.83
74973;BME280;63529;56.320;43.990;2022-09-27T10:46:41;99704.69;;;16.28;56.03
74973;BME280;63529;56.320;43.990;2022-09-27T10:49:31;99696.69;;;16.37;55.71
74973;BME280;63529;56.320;43.990;2022-09-27T10:52:06;99699.78;;;16.44;55.50
74973;BME280;63529;56.320;43.990;2022-09-27T10:54:38;99697.06;;;16.44;55.46
74973;BME280;63529;56.320;43.990;2022-09-27T10:57:17;99695.97;;;16.45;55.37
74973;BME280;63529;56.320;43.990;2022-09-27T10:59:52;99692.28;;;16.41;55.30
74973;BME280;63529;56.320;43.990;2022-09-27T11:02:39;99689.22;;;16.34;54.95
74973;BME280;63529;56.320;43.990;2022-09-27T11:05:13;99691.03;;;16.24;55.54
74973;BME280;63529;56.320;43.990;2022-09-27T11:07:53;99681.56;;;16.13;55.51
74973;BME280;63529;56.320;43.990;2022-09-27T11:10:31;99692.84;;;16.15;55.80
74973;BME280;63529;56.320;43.990;2022-09-27T11:13:14;99680.00;;;16.12;55.84
74973;BME280;63529;56.320;43.990;2022-09-27T11:15:59;99688.78;;;15.90;55.88
74973;BME280;63529;56.320;43.990;2022-09-27T11:32:10;99675.69;;;15.29;57.68
74973;BME280;63529;56.320;43.990;2022-09-27T11:35:09;99682.38;;;14.99;58.37
74973;BME280;63529;56.320;43.990;2022-09-27T11:38:28;99684.06;;;14.62;58.98
74973;BME280;63529;56.320;43.990;2022-09-27T11:41:14;99688.31;;;14.25;59.88
74973;BME280;63529;56.320;43.990;2022-09-27T11:46:31;99687.63;;;13.72;61.49
74973;BME280;63529;56.320;43.990;2022-09-27T11:49:51;99690.84;;;13.50;62.06
74973;BME280;63529;56.320;43.990;2022-09-27T11:52:39;99694.44;;;13.35;62.54
74973;BME280;63529;56.320;43.990;2022-09-27T11:55:22;99692.09;;;13.28;62.95
74973;BME280;63529;56.320;43.990;2022-09-27T12:00:56;99690.59;;;13.17;63.69
74973;BME280;63529;56.320;43.990;2022-09-27T12:09:32;99690.91;;;13.11;64.15
74973;BME280;63529;56.320;43.990;2022-09-27T12:12:04;99687.94;;;13.12;63.95
74973;BME280;63529;56.320;43.990;2022-09-27T12:14:41;99696.22;;;13.16;64.37
74973;BME280;63529;56.320;43.990;2022-09-27T12:17:22;99692.19;;;13.18;64.44
74973;BME280;63529;56.320;43.990;2022-09-27T12:19:57;99692.97;;;13.24;64.63
74973;BME280;63529;56.320;43.990;2022-09-27T12:23:11;99697.72;;;13.32;64.70
74973;BME280;63529;56.320;43.990;2022-09-27T12:26:06;99692.31;;;13.37;64.61
74973;BME280;63529;56.320;43.990;2022-09-27T12:31:34;99710.63;;;13.54;64.49
74973;BME280;63529;56.320;43.990;2022-09-27T12:34:45;99700.94;;;13.58;64.47
74973;BME280;63529;56.320;43.990;2022-09-27T12:37:11;99702.47;;;13.64;64.24
74973;BME280;63529;56.320;43.990;2022-09-27T12:39:49;99696.03;;;13.65;64.13
74973;BME280;63529;56.320;43.990;2022-09-27T12:42:37;99689.31;;;13.63;63.99
74973;BME280;63529;56.320;43.990;2022-09-27T12:45:15;99697.63;;;13.66;63.93
74973;BME280;63529;56.320;43.990;2022-09-27T12:47:52;99695.44;;;13.68;63.91
74973;BME280;63529;56.320;43.990;2022-09-27T12:50:35;99695.19;;;13.70;63.90
74973;BME280;63529;56.320;43.990;2022-09-27T13:13:22;99692.19;;;14.14;62.60
74973;BME280;63529;56.320;43.990;2022-09-27T13:15:56;99685.94;;;14.00;62.76
74973;BME280;63529;56.320;43.990;2022-09-27T13:20:56;99690.88;;;13.69;63.19
74973;BME280;63529;56.320;43.990;2022-09-27T13:26:21;99707.78;;;13.45;64.00
74973;BME280;63529;56.320;43.990;2022-09-27T13:28:59;99696.34;;;13.35;64.20
74973;BME280;63529;56.320;43.990;2022-09-27T13:34:39;99698.13;;;13.10;64.63
74973;BME280;63529;56.320;43.990;2022-09-27T13:40:10;99695.41;;;12.86;65.31
74973;BME280;63529;56.320;43.990;2022-09-27T13:48:31;99696.22;;;12.47;64.70
74973;BME280;63529;56.320;43.990;2022-09-27T13:51:17;99678.09;;;12.34;64.73
74973;BME280;63529;56.320;43.990;2022-09-27T13:53:56;99682.47;;;12.20;64.92
74973;BME280;63529;56.320;43.990;2022-09-27T13:56:53;99688.13;;;12.08;65.13
74973;BME280;63529;56.320;43.990;2022-09-27T14:02:24;99699.44;;;11.90;65.57
74973;BME280;63529;56.320;43.990;2022-09-27T14:04:55;99704.56;;;11.81;65.67
74973;BME280;63529;56.320;43.990;2022-09-27T14:07:29;99694.41;;;11.68;66.26
74973;BME280;63529;56.320;43.990;2022-09-27T14:10:02;99702.47;;;11.58;66.61
74973;BME280;63529;56.320;43.990;2022-09-27T14:12:34;99702.75;;;11.46;66.97
74973;BME280;63529;56.320;43.990;2022-09-27T14:15:07;99704.38;;;11.37;67.41
74973;BME280;63529;56.320;43.990;2022-09-27T14:17:40;99698.78;;;11.28;67.57
74973;BME280;63529;56.320;43.990;2022-09-27T14:20:32;99695.28;;;11.28;68.00
74973;BME280;63529;56.320;43.990;2022-09-27T14:23:01;99700.63;;;11.28;68.22
74973;BME280;63529;56.320;43.990;2022-09-27T14:25:32;99697.16;;;11.27;68.31
74973;BME280;63529;56.320;43.990;2022-09-27T14:27:58;99696.13;;;11.28;68.54
74973;BME280;63529;56.320;43.990;2022-09-27T14:30:45;99690.22;;;11.31;68.50
74973;BME280;63529;56.320;43.990;2022-09-27T14:33:33;99687.81;;;11.35;68.69
74973;BME280;63529;56.320;43.990;2022-09-27T14:36:28;99679.81;;;11.35;68.65
74973;BME280;63529;56.320;43.990;2022-09-27T14:39:34;99680.31;;;11.37;68.88
74973;BME280;63529;56.320;43.990;2022-09-27T14:42:20;99677.66;;;11.37;68.69
74973;BME280;63529;56.320;43.990;2022-09-27T14:44:47;99684.88;;;11.36;69.02
74973;BME280;63529;56.320;43.990;2022-09-27T14:47:19;99688.63;;;11.35;69.03
74973;BME280;63529;56.320;43.990;2022-09-27T14:50:16;99696.63;;;11.35;69.27
74973;BME280;63529;56.320;43.990;2022-09-27T14:52:43;99696.88;;;11.34;69.42
74973;BME280;63529;56.320;43.990;2022-09-27T14:55:18;99690.22;;;11.31;69.55
74973;BME280;63529;56.320;43.990;2022-09-27T14:57:58;99690.50;;;11.30;69.54
74973;BME280;63529;56.320;43.990;2022-09-27T15:00:27;99695.28;;;11.28;69.65
74973;BME280;63529;56.320;43.990;2022-09-27T15:02:59;99699.31;;;11.25;69.97
74973;BME280;63529;56.320;43.990;2022-09-27T15:05:28;99693.97;;;11.20;70.09
74973;BME280;63529;56.320;43.990;2022-09-27T15:07:55;99705.72;;;11.19;70.46
74973;BME280;63529;56.320;43.990;2022-09-27T15:10:25;99703.06;;;11.14;70.45
74973;BME280;63529;56.320;43.990;2022-09-27T15:12:55;99703.34;;;11.12;70.55
74973;BME280;63529;56.320;43.990;2022-09-27T15:15:27;99707.34;;;11.10;70.75
74973;BME280;63529;56.320;43.990;2022-09-27T15:17:56;99696.94;;;11.08;70.79
74973;BME280;63529;56.320;43.990;2022-09-27T15:20:28;99691.31;;;11.05;71.03
74973;BME280;63529;56.320;43.990;2022-09-27T15:22:58;99692.13;;;11.05;71.20
74973;BME280;63529;56.320;43.990;2022-09-27T15:28:19;99681.72;;;10.99;71.49
74973;BME280;63529;56.320;43.990;2022-09-27T15:30:56;99676.91;;;10.96;71.78
74973;BME280;63529;56.320;43.990;2022-09-27T15:33:27;99678.50;;;10.92;71.85
74973;BME280;63529;56.320;43.990;2022-09-27T15:35:58;99682.78;;;10.87;71.83
74973;BME280;63529;56.320;43.990;2022-09-27T15:49:28;99675.28;;;10.69;72.43
74973;BME280;63529;56.320;43.990;2022-09-27T15:51:57;99677.97;;;10.64;72.59
74973;BME280;63529;56.320;43.990;2022-09-27T15:54:26;99677.69;;;10.60;72.78
74973;BME280;63529;56.320;43.990;2022-09-27T15:56:56;99676.38;;;10.58;73.11
74973;BME280;63529;56.320;43.990;2022-09-27T15:59:29;99681.69;;;10.53;73.41
74973;BME280;63529;56.320;43.990;2022-09-27T16:02:18;99681.69;;;10.48;73.61
74973;BME280;63529;56.320;43.990;2022-09-27T16:04:45;99687.28;;;10.41;73.74